Time;durP1;ratioP1;P1;durP2;ratioP2;P2;SDS_P1;SDS_P2;PMS_P1;PMS_P2;Temp;Humidity;BMP_temperature;BMP_pressure;BME280_temperature;BME280_humidity;BME280_pressure;Samples;Min_cycle;Max_cycle;Signal;HPM_P1;HPM_P2
2021/05/03 00:01:04;;;;;;;;;;;;;;;18.30;28.74;94636.69;4992666;28;19917;-85
2021/05/03 00:03:29;;;;;;;;;;;;;;;18.29;29.30;94645.66;5009335;28;20453;-85
2021/05/03 00:05:57;;;;;;;;;;;;;;;18.27;28.92;94632.00;4989793;28;19961;-84
2021/05/03 00:08:23;;;;;;;;;;;;;;;18.26;28.33;94627.81;4992018;28;19918;-84
2021/05/03 00:10:48;;;;;;;;;;;;;;;18.23;28.68;94633.63;5003714;28;19925;-84
2021/05/03 00:13:13;;;;;;;;;;;;;;;18.16;28.22;94631.34;4974157;28;19922;-84
2021/05/03 00:15:39;;;;;;;;;;;;;;;18.16;28.16;94630.56;4988627;28;19949;-84
2021/05/03 00:18:04;;;;;;;;;;;;;;;18.13;28.20;94636.38;4993217;28;19929;-84
2021/05/03 00:20:29;;;;;;;;;;;;;;;18.16;28.22;94635.81;4987171;28;19980;-84
2021/05/03 00:22:55;;;;;;;;;;;;;;;18.16;28.13;94631.34;4992225;28;19918;-84
2021/05/03 00:25:20;;;;;;;;;;;;;;;18.18;28.51;94628.41;4989703;28;19918;-84
2021/05/03 00:27:45;;;;;;;;;;;;;;;18.20;28.28;94629.69;4990723;28;20313;-84
2021/05/03 00:30:11;;;;;;;;;;;;;;;18.22;28.66;94632.84;4991764;28;19928;-84
2021/05/03 00:32:36;;;;;;;;;;;;;;;18.23;28.45;94631.78;4976209;28;20020;-85
2021/05/03 00:35:05;;;;;;;;;;;;;;;18.24;28.67;94635.19;4991905;28;19961;-85
2021/05/03 00:37:30;;;;;;;;;;;;;;;18.22;29.55;94637.31;5019601;23;20013;-84
2021/05/03 00:39:59;;;;;;;;;;;;;;;18.20;31.24;94647.34;4979664;28;20073;-83
2021/05/03 00:42:24;;;;;;;;;;;;;;;18.19;29.21;94648.41;4978444;28;19918;-83
2021/05/03 00:44:51;;;;;;;;;;;;;;;18.19;29.10;94656.31;4965941;29;19929;-82
2021/05/03 00:47:17;;;;;;;;;;;;;;;18.20;28.94;94657.88;4956335;28;20306;-83
2021/05/03 00:49:42;;;;;;;;;;;;;;;18.18;29.13;94665.25;4955683;29;20417;-84
2021/05/03 00:52:07;;;;;;;;;;;;;;;18.17;29.66;94661.06;4940438;28;19922;-83
2021/05/03 00:54:33;;;;;;;;;;;;;;;18.15;30.70;94665.84;4955959;29;19918;-84
2021/05/03 00:56:58;;;;;;;;;;;;;;;18.13;30.72;94665.34;4945211;29;19914;-84
2021/05/03 00:59:23;;;;;;;;;;;;;;;18.10;30.84;94666.69;4956381;29;20136;-84
2021/05/03 01:01:49;;;;;;;;;;;;;;;18.09;31.45;94672.22;4972629;29;19946;-83
2021/05/03 01:04:14;;;;;;;;;;;;;;;18.04;32.01;94670.44;4972133;28;19914;-84
2021/05/03 01:06:39;;;;;;;;;;;;;;;18.02;31.84;94661.25;4954959;29;20050;-83
2021/05/03 01:09:05;;;;;;;;;;;;;;;18.00;31.27;94659.69;4972584;28;19956;-83
2021/05/03 01:11:30;;;;;;;;;;;;;;;17.97;31.27;94657.63;4972616;28;19930;-83
2021/05/03 01:13:55;;;;;;;;;;;;;;;18.00;30.88;94654.44;4964419;28;19918;-84
2021/05/03 01:16:21;;;;;;;;;;;;;;;17.97;30.46;94649.72;4962306;28;19923;-85
2021/05/03 01:18:46;;;;;;;;;;;;;;;17.95;30.27;94656.34;4962984;28;19929;-84
2021/05/03 01:21:11;;;;;;;;;;;;;;;17.84;30.68;94660.94;4961562;28;20005;-84
2021/05/03 01:23:37;;;;;;;;;;;;;;;17.72;30.66;94660.53;4956262;28;19922;-84
2021/05/03 01:26:02;;;;;;;;;;;;;;;17.65;30.40;94668.72;4939378;29;20414;-84
2021/05/03 01:28:27;;;;;;;;;;;;;;;17.64;30.01;94666.38;4955336;28;19926;-84
2021/05/03 01:30:53;;;;;;;;;;;;;;;17.60;30.05;94670.66;4941973;29;19918;-85
2021/05/03 01:33:18;;;;;;;;;;;;;;;17.63;30.36;94664.81;4960975;28;19958;-85
2021/05/03 01:35:44;;;;;;;;;;;;;;;17.66;30.73;94665.03;4961375;29;19933;-85
2021/05/03 01:38:10;;;;;;;;;;;;;;;17.69;30.63;94668.97;4959829;28;19951;-85
2021/05/03 01:40:37;;;;;;;;;;;;;;;17.69;31.21;94654.00;4962744;29;19922;-85
2021/05/03 01:43:12;;;;;;;;;;;;;;;17.68;30.93;94654.28;4983785;22;19922;-85
2021/05/03 01:45:38;;;;;;;;;;;;;;;17.71;30.55;94661.59;5023695;22;19922;-85
2021/05/03 01:48:03;;;;;;;;;;;;;;;17.70;30.59;94673.97;4991457;28;19921;-84
2021/05/03 01:50:29;;;;;;;;;;;;;;;17.72;32.00;94684.19;4981281;28;19914;-84
2021/05/03 01:52:54;;;;;;;;;;;;;;;17.63;31.35;94683.22;4967523;28;19922;-85
2021/05/03 01:55:20;;;;;;;;;;;;;;;17.56;31.22;94688.00;4983103;28;19928;-84
2021/05/03 01:57:45;;;;;;;;;;;;;;;17.51;31.49;94694.13;4984130;28;19933;-85
2021/05/03 02:00:11;;;;;;;;;;;;;;;17.49;31.63;94695.47;4983434;28;19922;-84
2021/05/03 02:02:36;;;;;;;;;;;;;;;17.49;31.86;94703.34;4987809;28;19914;-84
2021/05/03 02:05:02;;;;;;;;;;;;;;;17.44;32.24;94706.03;4990201;28;19914;-83
2021/05/03 02:07:27;;;;;;;;;;;;;;;17.41;31.84;94702.13;4965195;23;19957;-83
2021/05/03 02:09:52;;;;;;;;;;;;;;;17.36;32.39;94700.28;4996461;28;19973;-83
2021/05/03 02:12:19;;;;;;;;;;;;;;;17.38;31.71;94703.44;4979439;28;20385;-83
2021/05/03 02:14:45;;;;;;;;;;;;;;;17.36;31.93;94702.13;5002619;28;20535;-84
2021/05/03 02:17:10;;;;;;;;;;;;;;;17.36;32.91;94712.66;4985269;28;19918;-84
2021/05/03 02:19:35;;;;;;;;;;;;;;;17.30;32.17;94719.81;4985417;28;20527;-84
2021/05/03 02:22:00;;;;;;;;;;;;;;;17.33;31.73;94708.75;5001588;28;19964;-84
2021/05/03 02:24:26;;;;;;;;;;;;;;;17.34;32.95;94712.94;5001945;28;19921;-84
2021/05/03 02:26:51;;;;;;;;;;;;;;;17.37;31.48;94699.22;5000791;28;19917;-84
2021/05/03 02:29:16;;;;;;;;;;;;;;;17.34;33.78;94715.56;5002650;28;19918;-85
2021/05/03 02:31:42;;;;;;;;;;;;;;;17.30;36.32;94714.56;4987221;28;19913;-85
2021/05/03 02:34:07;;;;;;;;;;;;;;;17.24;36.21;94713.00;5003234;28;19928;-85
2021/05/03 02:36:33;;;;;;;;;;;;;;;17.19;37.09;94723.56;4987415;28;19925;-85
2021/05/03 02:38:58;;;;;;;;;;;;;;;17.20;33.81;94725.13;4984837;28;20009;-85
2021/05/03 02:41:23;;;;;;;;;;;;;;;17.15;34.89;94727.81;5001622;28;20425;-84
2021/05/03 02:43:48;;;;;;;;;;;;;;;17.03;33.46;94735.25;5005506;22;19926;-84
2021/05/03 02:46:14;;;;;;;;;;;;;;;16.95;32.97;94734.00;4991372;28;19944;-83
2021/05/03 02:48:39;;;;;;;;;;;;;;;16.91;33.39;94737.41;4989194;28;19921;-85
2021/05/03 02:51:04;;;;;;;;;;;;;;;16.85;33.89;94749.03;4993495;28;19929;-84
2021/05/03 02:53:30;;;;;;;;;;;;;;;16.85;34.98;94754.28;4993261;28;20016;-84
2021/05/03 02:55:55;;;;;;;;;;;;;;;16.79;34.48;94751.69;4995540;28;19925;-84
2021/05/03 02:58:20;;;;;;;;;;;;;;;16.78;35.40;94765.88;4993341;28;19918;-84
2021/05/03 03:00:45;;;;;;;;;;;;;;;16.77;35.50;94756.44;4987921;28;20448;-84
2021/05/03 03:03:11;;;;;;;;;;;;;;;16.72;36.69;94761.69;4998270;28;19947;-85
2021/05/03 03:05:36;;;;;;;;;;;;;;;16.68;35.15;94759.88;4991587;28;19956;-84
2021/05/03 03:08:02;;;;;;;;;;;;;;;16.73;34.51;94768.50;5013616;28;19976;-84
2021/05/03 03:10:28;;;;;;;;;;;;;;;16.82;35.42;94770.59;4970216;28;19917;-83
2021/05/03 03:12:53;;;;;;;;;;;;;;;16.85;36.42;94765.56;5014870;28;19918;-84
2021/05/03 03:15:19;;;;;;;;;;;;;;;16.85;37.70;94772.66;4990273;28;19925;-84
2021/05/03 03:17:48;;;;;;;;;;;;;;;16.78;39.36;94773.75;5029094;23;19921;-84
2021/05/03 03:20:14;;;;;;;;;;;;;;;16.75;39.76;94769.03;5025626;28;19905;-83
2021/05/03 03:22:39;;;;;;;;;;;;;;;16.66;40.65;94778.50;5035619;28;19921;-84
2021/05/03 03:25:05;;;;;;;;;;;;;;;16.56;39.23;94783.78;5043837;28;19921;-84
2021/05/03 03:27:30;;;;;;;;;;;;;;;16.62;38.52;94793.25;5028073;28;19917;-83
2021/05/03 03:29:56;;;;;;;;;;;;;;;16.63;35.91;94791.41;5010190;28;19917;-84
2021/05/03 03:32:22;;;;;;;;;;;;;;;16.72;35.70;94793.19;5025544;28;19921;-84
2021/05/03 03:34:47;;;;;;;;;;;;;;;16.72;35.15;94797.66;5026027;28;20273;-84
2021/05/03 03:37:12;;;;;;;;;;;;;;;16.79;35.87;94806.06;5023859;28;19925;-84
2021/05/03 03:39:38;;;;;;;;;;;;;;;16.82;35.61;94794.22;5028805;28;19975;-85
2021/05/03 03:42:03;;;;;;;;;;;;;;;16.94;35.71;94805.97;5030410;28;20365;-85
2021/05/03 03:44:28;;;;;;;;;;;;;;;16.93;35.53;94817.53;5042003;28;19917;-86
2021/05/03 03:46:54;;;;;;;;;;;;;;;17.01;35.05;94811.69;5031505;28;19948;-86
2021/05/03 03:49:19;;;;;;;;;;;;;;;17.11;34.68;94813.50;5030732;28;19932;-85
2021/05/03 03:51:44;;;;;;;;;;;;;;;17.12;34.77;94822.94;5013955;28;19917;-84
2021/05/03 03:54:10;;;;;;;;;;;;;;;17.14;34.68;94826.09;5018083;28;19949;-85
2021/05/03 03:56:35;;;;;;;;;;;;;;;17.18;35.02;94827.09;5031694;28;19917;-84
2021/05/03 03:59:01;;;;;;;;;;;;;;;17.27;34.59;94833.38;5031922;28;19920;-84
2021/05/03 04:01:29;;;;;;;;;;;;;;;17.33;34.53;94832.25;5027665;28;19921;-84
2021/05/03 04:04:00;;;;;;;;;;;;;;;17.40;34.73;94840.63;5029140;28;19920;-85
2021/05/03 04:09:26;;;;;;;;;;;;;;;17.40;34.45;94839.84;5028833;28;20348;-83
2021/05/03 04:27:20;;;;;;;;;;;;;;;25.08;23.91;94885.38;4979900;28;19933;-83
2021/05/03 04:29:45;;;;;;;;;;;;;;;26.25;22.60;94872.13;4996074;28;20096;-84
2021/05/03 04:32:10;;;;;;;;;;;;;;;27.25;21.26;94864.69;4965277;28;19937;-84
2021/05/03 04:34:35;;;;;;;;;;;;;;;28.20;20.56;94872.00;4966090;28;19922;-84
2021/05/03 04:37:01;;;;;;;;;;;;;;;28.95;19.73;94887.28;4964974;28;19969;-83
2021/05/03 04:39:26;;;;;;;;;;;;;;;29.47;19.10;94888.88;4983043;28;19985;-83
2021/05/03 04:41:52;;;;;;;;;;;;;;;29.21;18.94;94900.13;4982802;28;19918;-84
2021/05/03 04:44:17;;;;;;;;;;;;;;;29.12;19.54;94896.84;4982997;28;19925;-83
2021/05/03 04:46:42;;;;;;;;;;;;;;;28.32;19.74;94897.94;4978737;28;19918;-83
2021/05/03 04:49:08;;;;;;;;;;;;;;;27.74;20.47;94902.78;4982081;28;19957;-84
2021/05/03 04:51:33;;;;;;;;;;;;;;;27.55;20.86;94900.69;4982659;28;19929;-84
2021/05/03 04:53:58;;;;;;;;;;;;;;;27.56;20.97;94907.59;4984421;28;19925;-83
2021/05/03 04:56:27;;;;;;;;;;;;;;;27.37;21.09;94910.06;4983174;28;19925;-83
2021/05/03 04:58:52;;;;;;;;;;;;;;;27.33;21.73;94909.16;4966576;28;19964;-85
2021/05/03 05:01:17;;;;;;;;;;;;;;;27.93;21.23;94912.88;4967273;28;19921;-83
2021/05/03 05:04:07;;;;;;;;;;;;;;;29.12;19.77;94911.00;4981869;28;19914;-83
2021/05/03 05:06:42;;;;;;;;;;;;;;;31.27;18.04;94914.13;4981958;28;20026;-85
2021/05/03 05:09:07;;;;;;;;;;;;;;;33.43;16.33;94923.88;4979582;28;19921;-82
2021/05/03 05:11:45;;;;;;;;;;;;;;;35.18;14.45;94919.13;4981862;28;19924;-82
2021/05/03 05:14:35;;;;;;;;;;;;;;;36.64;13.36;94924.16;4982067;28;19945;-83
2021/05/03 05:19:34;;;;;;;;;;;;;;;39.08;12.29;94930.16;5001270;23;20378;-84
2021/05/03 05:22:00;;;;;;;;;;;;;;;39.70;12.21;94942.34;4992865;28;19922;-83
2021/05/03 05:24:25;;;;;;;;;;;;;;;39.79;12.39;94933.63;4977785;28;19928;-82
2021/05/03 05:26:50;;;;;;;;;;;;;;;40.26;12.25;94939.75;4981039;28;19940;-84
2021/05/03 05:29:16;;;;;;;;;;;;;;;40.06;12.46;94944.44;4995148;28;19949;-84
2021/05/03 05:31:41;;;;;;;;;;;;;;;38.91;13.18;94939.34;5003681;28;19961;-81
2021/05/03 05:34:06;;;;;;;;;;;;;;;37.21;14.67;94940.78;4992025;28;19918;-84
2021/05/03 05:36:32;;;;;;;;;;;;;;;35.77;16.21;94946.47;4979704;28;20424;-83
2021/05/03 05:38:59;;;;;;;;;;;;;;;35.20;16.86;94938.41;4997549;28;19941;-83
2021/05/03 05:41:41;;;;;;;;;;;;;;;;;;;;;
2021/05/03 05:44:07;;;;;;;;;;;;;;;35.47;16.88;94946.91;4996943;28;20013;-84
2021/05/03 05:46:53;;;;;;;;;;;;;;;36.81;15.90;94955.81;4996781;28;19917;-83
2021/05/03 05:49:19;;;;;;;;;;;;;;;38.98;14.23;94963.69;4993876;28;19990;-82
2021/05/03 05:51:44;;;;;;;;;;;;;;;39.84;13.34;94963.88;4990824;28;19922;-83
2021/05/03 05:56:40;;;;;;;;;;;;;;;40.19;13.10;94962.47;4979735;28;20287;-83
2021/05/03 05:59:06;;;;;;;;;;;;;;;39.82;13.28;94949.91;4980633;28;20421;-82
2021/05/03 06:01:32;;;;;;;;;;;;;;;39.42;13.52;94954.47;4983655;28;19914;-82
2021/05/03 06:03:57;;;;;;;;;;;;;;;38.74;14.21;94965.59;4976623;28;20409;-81
2021/05/03 06:06:23;;;;;;;;;;;;;;;36.92;15.49;94963.84;4978151;28;20362;-82
2021/05/03 06:08:48;;;;;;;;;;;;;;;35.12;17.59;94970.06;4979110;28;20041;-82
2021/05/03 06:11:13;;;;;;;;;;;;;;;33.57;18.84;94968.25;4981891;28;19925;-82
2021/05/03 06:13:39;;;;;;;;;;;;;;;32.11;21.04;94964.06;4978826;28;20390;-82
2021/05/03 06:16:04;;;;;;;;;;;;;;;30.80;22.33;94963.59;4963286;28;19933;-82
2021/05/03 06:18:30;;;;;;;;;;;;;;;29.63;24.12;94966.56;4978375;28;20321;-81
2021/05/03 06:20:55;;;;;;;;;;;;;;;28.42;26.08;94958.94;4977390;28;19925;-83
2021/05/03 06:23:20;;;;;;;;;;;;;;;27.88;26.95;94966.56;4983459;28;19922;-83
2021/05/03 06:25:45;;;;;;;;;;;;;;;27.40;27.86;94971.59;4984290;28;20344;-83
2021/05/03 06:28:11;;;;;;;;;;;;;;;27.32;28.22;94971.69;4986129;28;20504;-83
2021/05/03 06:30:36;;;;;;;;;;;;;;;27.19;28.36;94971.72;4985665;28;19918;-83
2021/05/03 06:33:02;;;;;;;;;;;;;;;27.09;28.64;94974.03;4984976;28;19914;-83
2021/05/03 06:35:27;;;;;;;;;;;;;;;27.12;28.72;94970.69;4982866;28;19918;-83
2021/05/03 06:37:53;;;;;;;;;;;;;;;27.27;28.89;94967.38;4982671;28;19918;-83
2021/05/03 06:40:18;;;;;;;;;;;;;;;27.29;28.53;94967.81;4969268;28;20008;-83
2021/05/03 06:42:43;;;;;;;;;;;;;;;27.31;28.45;94970.91;4992715;28;20393;-82
2021/05/03 06:45:09;;;;;;;;;;;;;;;27.46;28.50;94962.22;4983869;28;19918;-82
2021/05/03 06:47:35;;;;;;;;;;;;;;;27.26;28.93;94963.13;5200072;22;19935;-82
2021/05/03 06:50:01;;;;;;;;;;;;;;;27.07;28.93;94962.91;4994703;28;19993;-82
2021/05/03 06:52:26;;;;;;;;;;;;;;;27.07;28.53;94953.00;4988827;28;19950;-82
2021/05/03 06:54:51;;;;;;;;;;;;;;;26.77;29.18;94968.38;4967870;28;20302;-82
2021/05/03 06:57:17;;;;;;;;;;;;;;;26.72;29.27;94971.28;4957601;28;19922;-82
2021/05/03 06:59:42;;;;;;;;;;;;;;;26.47;29.03;94962.41;4953846;28;20309;-80
2021/05/03 07:02:10;;;;;;;;;;;;;;;26.32;29.17;94955.78;4962945;28;19944;-80
2021/05/03 07:04:35;;;;;;;;;;;;;;;26.12;29.24;94953.16;4970632;28;19917;-81
2021/05/03 07:07:03;;;;;;;;;;;;;;;25.86;28.99;94950.66;4962625;28;20022;-79
2021/05/03 07:09:37;;;;;;;;;;;;;;;25.20;29.60;94966.38;4956885;28;19922;-78
2021/05/03 07:12:08;;;;;;;;;;;;;;;24.76;30.38;94963.09;4951473;28;19992;-79
2021/05/03 07:14:37;;;;;;;;;;;;;;;24.39;31.54;94968.00;4967052;28;19964;-79
2021/05/03 07:17:04;;;;;;;;;;;;;;;24.30;32.48;94961.16;4973738;28;19922;-77
2021/05/03 07:19:30;;;;;;;;;;;;;;;24.30;31.86;94951.28;4972542;28;20310;-78
2021/05/03 07:21:55;;;;;;;;;;;;;;;24.21;31.97;94958.44;4968367;28;19926;-77
2021/05/03 07:24:20;;;;;;;;;;;;;;;24.34;32.10;94957.53;4968000;28;19922;-77
2021/05/03 07:26:45;;;;;;;;;;;;;;;24.28;31.64;94961.44;4970226;28;19929;-80
2021/05/03 07:29:11;;;;;;;;;;;;;;;24.58;31.79;94972.22;4980190;22;19925;-78
2021/05/03 07:31:36;;;;;;;;;;;;;;;24.77;31.01;94964.66;4998182;28;19988;-79
2021/05/03 07:34:01;;;;;;;;;;;;;;;24.66;30.99;94960.75;5101443;22;19965;-79
2021/05/03 07:36:27;;;;;;;;;;;;;;;24.42;31.76;94964.72;4989014;28;19957;-80
2021/05/03 07:38:52;;;;;;;;;;;;;;;24.54;31.40;94964.84;4971690;28;19922;-80
2021/05/03 07:41:18;;;;;;;;;;;;;;;24.79;31.68;94975.75;4991306;22;20034;-79
2021/05/03 07:43:43;;;;;;;;;;;;;;;24.94;31.22;94969.91;4996269;28;20405;-80
2021/05/03 07:46:08;;;;;;;;;;;;;;;24.84;34.07;94964.94;4995775;28;19940;-80
2021/05/03 07:48:34;;;;;;;;;;;;;;;24.81;32.28;94962.91;4997203;28;20028;-80
2021/05/03 07:50:59;;;;;;;;;;;;;;;24.53;32.00;94954.53;4998041;28;19913;-80
2021/05/03 07:53:24;;;;;;;;;;;;;;;23.93;31.98;94955.34;4998011;28;20118;-79
2021/05/03 07:55:50;;;;;;;;;;;;;;;23.65;33.00;94953.00;5000483;28;20373;-80
2021/05/03 07:58:15;;;;;;;;;;;;;;;23.33;33.16;94951.50;4983451;28;19926;-79
2021/05/03 08:00:40;;;;;;;;;;;;;;;23.28;33.73;94961.47;4998852;28;19921;-79
2021/05/03 08:03:05;;;;;;;;;;;;;;;23.40;32.93;94958.97;4998699;28;19948;-80
2021/05/03 08:05:31;;;;;;;;;;;;;;;23.41;32.27;94983.66;4996720;28;19928;-79
2021/05/03 08:07:57;;;;;;;;;;;;;;;23.47;33.07;94972.59;4980899;28;20341;-79
2021/05/03 08:10:22;;;;;;;;;;;;;;;23.78;32.68;94966.44;4982905;28;19921;-80
2021/05/03 08:12:50;;;;;;;;;;;;;;;23.62;31.49;94958.91;4983778;28;19918;-80
2021/05/03 08:15:15;;;;;;;;;;;;;;;23.52;30.12;94969.78;4998805;28;19930;-78
2021/05/03 08:17:43;;;;;;;;;;;;;;;23.51;31.35;94970.09;4999226;28;19981;-77
2021/05/03 08:20:10;;;;;;;;;;;;;;;23.48;31.27;94978.69;4998712;28;20420;-77
2021/05/03 08:22:36;;;;;;;;;;;;;;;23.58;30.74;94987.16;4997504;28;19933;-78
2021/05/03 08:25:01;;;;;;;;;;;;;;;23.64;30.25;94987.81;4996499;28;19917;-77
2021/05/03 08:27:26;;;;;;;;;;;;;;;23.80;31.08;94969.56;4995167;28;19961;-77
2021/05/03 08:29:52;;;;;;;;;;;;;;;23.80;30.06;94978.31;4997453;28;19918;-78
2021/05/03 08:32:17;;;;;;;;;;;;;;;23.70;29.93;94977.81;4999576;28;19918;-77
2021/05/03 08:34:42;;;;;;;;;;;;;;;23.54;30.91;94994.16;4996534;28;20285;-78
2021/05/03 08:37:08;;;;;;;;;;;;;;;23.35;31.34;94997.06;4995690;28;19921;-79
2021/05/03 08:39:33;;;;;;;;;;;;;;;23.37;31.11;95010.03;4980081;28;20079;-77
2021/05/03 08:42:00;;;;;;;;;;;;;;;23.53;31.70;95008.50;4997412;28;19941;-80
2021/05/03 08:44:29;;;;;;;;;;;;;;;23.56;31.24;95001.81;4980577;28;20552;-80
2021/05/03 08:46:55;;;;;;;;;;;;;;;23.61;30.99;94983.13;4997744;28;20427;-80
2021/05/03 08:49:26;;;;;;;;;;;;;;;23.66;31.65;94985.63;4997800;28;19917;-80
2021/05/03 08:52:10;;;;;;;;;;;;;;;23.64;31.48;94983.28;4980168;28;19918;-79
2021/05/03 08:54:40;;;;;;;;;;;;;;;23.26;31.62;94993.59;4999911;28;20313;-80
2021/05/03 08:57:06;;;;;;;;;;;;;;;23.18;31.23;94997.00;4995748;28;20445;-79
2021/05/03 08:59:34;;;;;;;;;;;;;;;23.21;31.32;94996.38;4979048;28;19945;-80
2021/05/03 09:02:00;;;;;;;;;;;;;;;23.23;32.33;94994.22;4995246;28;19921;-80
2021/05/03 09:04:25;;;;;;;;;;;;;;;23.17;31.52;94990.16;4995748;28;19925;-79
2021/05/03 09:07:00;;;;;;;;;;;;;;;23.04;31.58;94996.31;4996290;28;20049;-80
2021/05/03 09:09:32;;;;;;;;;;;;;;;22.91;31.69;94983.94;5009938;28;20275;-80
2021/05/03 09:12:01;;;;;;;;;;;;;;;22.77;31.49;94982.13;4995010;28;20016;-80
2021/05/03 09:14:33;;;;;;;;;;;;;;;22.68;32.78;94973.34;4999272;28;19938;-82
2021/05/03 09:16:58;;;;;;;;;;;;;;;22.65;32.20;94968.66;5014084;28;19918;-80
2021/05/03 09:19:32;;;;;;;;;;;;;;;22.67;32.45;94971.78;5000316;28;19917;-83
2021/05/03 09:21:58;;;;;;;;;;;;;;;22.58;32.44;94967.50;4996388;28;19956;-79
2021/05/03 09:24:28;;;;;;;;;;;;;;;22.29;32.67;94960.00;4999757;28;20212;-82
2021/05/03 09:27:04;;;;;;;;;;;;;;;22.05;33.52;94955.78;5030395;23;19926;-80
2021/05/03 09:29:31;;;;;;;;;;;;;;;22.07;33.96;94943.03;4978377;28;20024;-81
2021/05/03 09:31:56;;;;;;;;;;;;;;;22.15;33.72;94952.13;4969270;28;19918;-82
2021/05/03 09:34:28;;;;;;;;;;;;;;;22.16;34.48;94951.84;4974748;28;20011;-80
2021/05/03 09:36:54;;;;;;;;;;;;;;;22.29;34.27;94955.50;4978233;28;19972;-80
2021/05/03 09:39:29;;;;;;;;;;;;;;;22.28;33.61;94959.22;4977601;28;19918;-80
2021/05/03 09:41:54;;;;;;;;;;;;;;;22.24;32.98;94965.44;4992912;28;19918;-80
2021/05/03 09:44:19;;;;;;;;;;;;;;;22.29;33.56;94966.13;5339035;22;19932;-80
2021/05/03 09:46:46;;;;;;;;;;;;;;;22.39;33.61;94960.56;4991909;28;19929;-79
2021/05/03 09:49:12;;;;;;;;;;;;;;;22.39;32.95;94962.41;4965633;28;19932;-79
2021/05/03 09:51:45;;;;;;;;;;;;;;;22.23;33.29;94961.22;4945851;28;19918;-80
2021/05/03 09:54:11;;;;;;;;;;;;;;;22.26;32.78;94957.97;4971255;28;19928;-80
2021/05/03 09:56:50;;;;;;;;;;;;;;;22.15;32.98;94966.16;4947824;28;19918;-81
2021/05/03 09:59:25;;;;;;;;;;;;;;;22.09;33.74;94964.69;4948251;28;20182;-82
2021/05/03 10:02:10;;;;;;;;;;;;;;;22.04;34.00;94971.97;4963115;28;19922;-80
2021/05/03 10:04:36;;;;;;;;;;;;;;;22.04;33.92;94946.25;4965916;28;19922;-80
2021/05/03 10:07:02;;;;;;;;;;;;;;;21.94;33.87;94965.00;4954256;28;19929;-80
2021/05/03 10:09:29;;;;;;;;;;;;;;;21.84;34.03;94966.03;4998205;22;19922;-79
2021/05/03 10:11:54;;;;;;;;;;;;;;;21.90;33.62;94963.28;4988242;28;20012;-81
2021/05/03 10:14:20;;;;;;;;;;;;;;;21.96;34.44;94968.16;4989476;28;19960;-80
2021/05/03 10:16:45;;;;;;;;;;;;;;;22.11;34.21;94970.47;4984680;28;19929;-81
2021/05/03 10:19:11;;;;;;;;;;;;;;;22.22;32.72;94947.19;4988479;28;19939;-81
2021/05/03 10:21:36;;;;;;;;;;;;;;;22.11;33.27;94959.09;4980069;28;19918;-81
2021/05/03 10:24:01;;;;;;;;;;;;;;;22.14;33.35;94950.56;5047102;22;19930;-80
2021/05/03 10:26:27;;;;;;;;;;;;;;;22.28;32.99;94953.13;4994836;28;19935;-80
2021/05/03 10:28:53;;;;;;;;;;;;;;;22.38;32.28;94947.59;5010507;28;19925;-80
2021/05/03 10:31:19;;;;;;;;;;;;;;;22.45;31.69;94947.94;4987712;28;19928;-80
2021/05/03 10:33:44;;;;;;;;;;;;;;;22.31;31.50;94953.34;4996085;28;20305;-81
2021/05/03 10:36:10;;;;;;;;;;;;;;;22.01;32.11;94954.81;4996006;28;19921;-81
2021/05/03 10:38:39;;;;;;;;;;;;;;;21.92;31.63;94948.66;4996071;28;19922;-80
2021/05/03 10:41:24;;;;;;;;;;;;;;;21.76;32.33;94942.91;4995370;28;20377;-80
2021/05/03 10:43:50;;;;;;;;;;;;;;;21.72;31.45;94926.06;4995984;28;19917;-80
2021/05/03 10:56:51;;;;;;;;;;;;;;;21.99;31.70;94930.50;4996046;28;19918;-81
2021/05/03 10:59:17;;;;;;;;;;;;;;;22.05;31.12;94936.47;4997232;28;19921;-80
2021/05/03 11:01:51;;;;;;;;;;;;;;;22.11;30.84;94925.44;5002803;28;19926;-80
2021/05/03 11:04:17;;;;;;;;;;;;;;;22.09;30.81;94940.09;5002821;22;20132;-79
2021/05/03 11:06:42;;;;;;;;;;;;;;;22.06;31.02;94940.69;4986787;28;19921;-79
2021/05/03 11:11:55;;;;;;;;;;;;;;;22.12;30.97;94961.44;4990198;28;19996;-79
2021/05/03 11:14:21;;;;;;;;;;;;;;;22.17;31.50;94952.63;4998091;28;19918;-79
2021/05/03 11:16:51;;;;;;;;;;;;;;;22.13;32.16;94941.84;5007021;28;19926;-80
2021/05/03 11:22:04;;;;;;;;;;;;;;;22.08;31.96;94949.91;4988005;28;19918;-80
2021/05/03 11:27:05;;;;;;;;;;;;;;;22.02;33.40;94951.06;4986547;28;20313;-80
2021/05/03 11:29:39;;;;;;;;;;;;;;;22.12;32.97;94953.50;4988181;28;20020;-80
2021/05/03 11:32:05;;;;;;;;;;;;;;;22.21;32.19;94942.19;4996012;28;19917;-83
2021/05/03 11:34:41;;;;;;;;;;;;;;;22.27;31.69;94936.47;4990120;28;20337;-82
2021/05/03 11:37:09;;;;;;;;;;;;;;;22.30;31.50;94935.88;4997269;28;19917;-84
2021/05/03 11:44:55;;;;;;;;;;;;;;;21.79;28.36;94934.38;5013307;28;19944;-82
2021/05/03 11:47:31;;;;;;;;;;;;;;;21.83;28.50;94937.22;5012203;28;19933;-82
2021/05/03 11:49:56;;;;;;;;;;;;;;;21.80;27.99;94933.31;5002245;28;19968;-82
2021/05/03 11:52:31;;;;;;;;;;;;;;;21.82;28.32;94933.78;4982102;28;19917;-83
2021/05/03 11:55:07;;;;;;;;;;;;;;;21.81;27.73;94919.00;4998808;28;19925;-82
2021/05/03 11:57:33;;;;;;;;;;;;;;;21.71;27.19;94918.44;4980916;28;19956;-82
2021/05/03 12:00:02;;;;;;;;;;;;;;;21.76;27.81;94920.94;4981645;28;19921;-82
2021/05/03 12:02:30;;;;;;;;;;;;;;;21.87;28.21;94920.44;4996796;28;19914;-83
2021/05/03 12:04:55;;;;;;;;;;;;;;;21.99;28.41;94919.91;4999646;28;19918;-82
2021/05/03 12:07:22;;;;;;;;;;;;;;;21.94;28.09;94912.06;4998177;28;19957;-78
2021/05/03 12:09:48;;;;;;;;;;;;;;;21.98;29.27;94909.63;4996743;28;19918;-79
2021/05/03 12:12:13;;;;;;;;;;;;;;;22.04;30.17;94911.06;4981208;28;19924;-81
2021/05/03 12:14:42;;;;;;;;;;;;;;;22.04;30.40;94890.66;5001469;28;19940;-83
2021/05/03 12:17:17;;;;;;;;;;;;;;;21.98;29.63;94910.41;5003801;28;19963;-77
2021/05/03 12:19:43;;;;;;;;;;;;;;;21.96;31.46;94907.25;4991922;28;20381;-79
2021/05/03 12:22:08;;;;;;;;;;;;;;;21.87;31.32;94911.72;4991348;28;20012;-82
2021/05/03 12:24:34;;;;;;;;;;;;;;;21.78;31.39;94913.50;4977416;28;20360;-79
2021/05/03 12:26:59;;;;;;;;;;;;;;;21.87;31.18;94909.06;4980696;28;19918;-80
2021/05/03 12:29:25;;;;;;;;;;;;;;;21.83;29.74;94921.34;4997770;28;19968;-78
2021/05/03 12:31:51;;;;;;;;;;;;;;;21.78;30.86;94916.91;4994325;28;20100;-77
2021/05/03 12:34:21;;;;;;;;;;;;;;;21.79;30.43;94918.50;4988944;28;19968;-74
2021/05/03 12:37:05;;;;;;;;;;;;;;;21.72;28.71;94914.69;4992983;28;19918;-80
2021/05/03 12:39:57;;;;;;;;;;;;;;;21.68;29.49;94913.75;4993537;28;20008;-81
2021/05/03 12:42:22;;;;;;;;;;;;;;;21.66;29.70;94911.41;4993331;28;19921;-79
2021/05/03 12:44:51;;;;;;;;;;;;;;;21.61;30.36;94910.72;4990661;28;19918;-77
2021/05/03 12:47:20;;;;;;;;;;;;;;;21.57;28.51;94908.66;4997252;28;20373;-81
2021/05/03 12:50:04;;;;;;;;;;;;;;;21.35;28.75;94911.28;4996821;28;19949;-82
2021/05/03 12:52:45;;;;;;;;;;;;;;;21.43;35.04;94923.00;4976530;28;19941;-83
2021/05/03 12:55:21;;;;;;;;;;;;;;;21.60;27.75;94922.38;4991653;28;20004;-83
2021/05/03 12:57:56;;;;;;;;;;;;;;;21.74;28.96;94915.19;4997149;28;19925;-67
2021/05/03 13:00:27;;;;;;;;;;;;;;;21.75;28.53;94912.22;4993792;28;19928;-83
2021/05/03 13:03:01;;;;;;;;;;;;;;;21.92;30.65;94919.53;4990026;28;19922;-80
2021/05/03 13:05:40;;;;;;;;;;;;;;;22.11;28.56;94911.44;4994479;28;20366;-76
2021/05/03 13:08:16;;;;;;;;;;;;;;;22.30;25.80;94913.91;4994109;28;19928;-84
2021/05/03 13:29:42;;;;;;;;;;;;;;;22.44;27.19;94898.69;4994511;28;19925;-80
2021/05/03 13:32:07;;;;;;;;;;;;;;;22.47;25.61;94900.75;4998675;28;19926;-78
2021/05/03 13:34:33;;;;;;;;;;;;;;;22.52;27.24;94921.81;4990754;28;20408;-74
2021/05/03 13:36:58;;;;;;;;;;;;;;;22.52;27.24;94900.63;4989267;28;19925;-78
2021/05/03 13:39:24;;;;;;;;;;;;;;;22.56;25.94;94909.50;4974636;28;19925;-82
2021/05/03 13:41:50;;;;;;;;;;;;;;;22.60;27.64;94899.06;4989642;28;19922;-78
2021/05/03 13:44:16;;;;;;;;;;;;;;;22.62;26.06;94908.31;4994652;28;19925;-79
2021/05/03 13:46:42;;;;;;;;;;;;;;;22.70;25.63;94907.56;4996445;28;20060;-77
2021/05/03 13:49:07;;;;;;;;;;;;;;;22.65;24.22;94905.06;4995005;28;20379;-77
2021/05/03 13:51:32;;;;;;;;;;;;;;;22.70;26.25;94906.78;4994382;28;19918;-79
2021/05/03 13:54:02;;;;;;;;;;;;;;;22.64;24.21;94892.88;4993364;28;19921;-77